sensor_id;sensor_type;location;lat;lon;timestamp;pressure;altitude;pressure_sealevel;temperature;humidity
14612;BME280;7392;52.078;11.650;2023-03-15T00:02:00;100141.00;;;0.09;100.00
14612;BME280;7392;52.078;11.650;2023-03-15T00:04:28;100142.72;;;0.08;100.00
14612;BME280;7392;52.078;11.650;2023-03-15T00:06:59;100148.84;;;0.09;100.00
14612;BME280;7392;52.078;11.650;2023-03-15T00:09:26;100147.09;;;0.09;100.00
14612;BME280;7392;52.078;11.650;2023-03-15T00:11:54;100147.94;;;0.08;100.00
14612;BME280;7392;52.078;11.650;2023-03-15T00:14:22;100155.78;;;0.08;100.00
14612;BME280;7392;52.078;11.650;2023-03-15T00:16:50;100155.72;;;0.07;100.00
14612;BME280;7392;52.078;11.650;2023-03-15T00:19:17;100156.56;;;0.06;100.00
14612;BME280;7392;52.078;11.650;2023-03-15T00:21:45;100157.31;;;0.02;100.00
14612;BME280;7392;52.078;11.650;2023-03-15T00:24:14;100160.81;;;0.02;100.00
14612;BME280;7392;52.078;11.650;2023-03-15T00:26:41;100165.13;;;0.00;100.00
14612;BME280;7392;52.078;11.650;2023-03-15T00:29:09;100158.94;;;-0.02;100.00
14612;BME280;7392;52.078;11.650;2023-03-15T00:31:37;100158.06;;;-0.03;100.00
14612;BME280;7392;52.078;11.650;2023-03-15T00:34:04;100165.78;;;-0.06;100.00
14612;BME280;7392;52.078;11.650;2023-03-15T00:36:32;100164.03;;;-0.07;100.00
14612;BME280;7392;52.078;11.650;2023-03-15T00:39:00;100171.88;;;-0.07;100.00
14612;BME280;7392;52.078;11.650;2023-03-15T00:41:31;100167.41;;;-0.09;100.00
14612;BME280;7392;52.078;11.650;2023-03-15T00:44:00;100177.00;;;-0.10;100.00
14612;BME280;7392;52.078;11.650;2023-03-15T00:46:29;100181.28;;;-0.12;100.00
14612;BME280;7392;52.078;11.650;2023-03-15T00:48:57;100177.72;;;-0.14;100.00
14612;BME280;7392;52.078;11.650;2023-03-15T00:51:24;100186.41;;;-0.15;100.00
14612;BME280;7392;52.078;11.650;2023-03-15T00:53:52;100188.09;;;-0.15;100.00
14612;BME280;7392;52.078;11.650;2023-03-15T00:56:23;100184.63;;;-0.16;100.00
14612;BME280;7392;52.078;11.650;2023-03-15T00:58:53;100198.53;;;-0.17;100.00
14612;BME280;7392;52.078;11.650;2023-03-15T01:01:23;100195.84;;;-0.18;100.00
14612;BME280;7392;52.078;11.650;2023-03-15T01:03:52;100194.94;;;-0.19;100.00
14612;BME280;7392;52.078;11.650;2023-03-15T01:06:22;100194.03;;;-0.21;100.00
14612;BME280;7392;52.078;11.650;2023-03-15T01:08:50;100194.88;;;-0.22;99.48
14612;BME280;7392;52.078;11.650;2023-03-15T01:11:23;100193.09;;;-0.23;99.87
14612;BME280;7392;52.078;11.650;2023-03-15T01:13:53;100198.25;;;-0.25;99.76
14612;BME280;7392;52.078;11.650;2023-03-15T01:16:21;100205.22;;;-0.25;99.45
14612;BME280;7392;52.078;11.650;2023-03-15T01:18:52;100202.50;;;-0.28;99.73
14612;BME280;7392;52.078;11.650;2023-03-15T01:21:21;100205.88;;;-0.31;99.38
14612;BME280;7392;52.078;11.650;2023-03-15T01:23:50;100213.69;;;-0.32;99.12
14612;BME280;7392;52.078;11.650;2023-03-15T01:26:20;100204.88;;;-0.34;99.30
14612;BME280;7392;52.078;11.650;2023-03-15T01:28:48;100208.34;;;-0.35;99.85
14612;BME280;7392;52.078;11.650;2023-03-15T01:31:21;100203.91;;;-0.38;99.60
14612;BME280;7392;52.078;11.650;2023-03-15T01:33:49;100202.97;;;-0.40;99.86
14612;BME280;7392;52.078;11.650;2023-03-15T01:36:17;100205.47;;;-0.43;100.00
14612;BME280;7392;52.078;11.650;2023-03-15T01:38:45;100204.53;;;-0.45;100.00
14612;BME280;7392;52.078;11.650;2023-03-15T01:41:17;100204.38;;;-0.50;100.00
14612;BME280;7392;52.078;11.650;2023-03-15T01:43:46;100211.28;;;-0.52;100.00
14612;BME280;7392;52.078;11.650;2023-03-15T01:46:25;100211.09;;;-0.57;100.00
14612;BME280;7392;52.078;11.650;2023-03-15T01:49:02;100212.84;;;-0.57;100.00
14612;BME280;7392;52.078;11.650;2023-03-15T01:51:36;100217.94;;;-0.60;100.00
14612;BME280;7392;52.078;11.650;2023-03-15T01:54:11;100213.53;;;-0.63;100.00
14612;BME280;7392;52.078;11.650;2023-03-15T01:56:45;100216.13;;;-0.63;100.00
14612;BME280;7392;52.078;11.650;2023-03-15T01:59:21;100216.91;;;-0.65;100.00
14612;BME280;7392;52.078;11.650;2023-03-15T02:01:53;100227.28;;;-0.67;100.00
14612;BME280;7392;52.078;11.650;2023-03-15T02:04:24;100222.91;;;-0.68;100.00
14612;BME280;7392;52.078;11.650;2023-03-15T02:06:59;100219.31;;;-0.71;100.00
14612;BME280;7392;52.078;11.650;2023-03-15T02:09:34;100228.84;;;-0.72;100.00
14612;BME280;7392;52.078;11.650;2023-03-15T02:12:04;100233.16;;;-0.72;100.00
14612;BME280;7392;52.078;11.650;2023-03-15T02:14:33;100231.38;;;-0.73;100.00
14612;BME280;7392;52.078;11.650;2023-03-15T02:17:04;100230.50;;;-0.74;100.00
14612;BME280;7392;52.078;11.650;2023-03-15T02:19:40;100229.63;;;-0.74;100.00
14612;BME280;7392;52.078;11.650;2023-03-15T02:22:22;100237.34;;;-0.78;100.00
14612;BME280;7392;52.078;11.650;2023-03-15T02:24:58;100234.66;;;-0.79;100.00
14612;BME280;7392;52.078;11.650;2023-03-15T02:27:33;100239.00;;;-0.80;100.00
14612;BME280;7392;52.078;11.650;2023-03-15T02:30:04;100244.22;;;-0.80;100.00
14612;BME280;7392;52.078;11.650;2023-03-15T02:32:31;100243.44;;;-0.77;100.00
14612;BME280;7392;52.078;11.650;2023-03-15T02:34:59;100247.81;;;-0.76;100.00
14612;BME280;7392;52.078;11.650;2023-03-15T02:37:29;100247.88;;;-0.74;100.00
14612;BME280;7392;52.078;11.650;2023-03-15T02:39:56;100247.09;;;-0.72;100.00
14612;BME280;7392;52.078;11.650;2023-03-15T02:42:24;100253.22;;;-0.71;100.00
14612;BME280;7392;52.078;11.650;2023-03-15T02:44:57;100256.69;;;-0.71;100.00
14612;BME280;7392;52.078;11.650;2023-03-15T02:47:27;100251.53;;;-0.69;100.00
14612;BME280;7392;52.078;11.650;2023-03-15T02:49:56;100250.66;;;-0.70;100.00
14612;BME280;7392;52.078;11.650;2023-03-15T02:52:24;100254.97;;;-0.70;100.00
14612;BME280;7392;52.078;11.650;2023-03-15T02:54:53;100264.53;;;-0.71;100.00
14612;BME280;7392;52.078;11.650;2023-03-15T02:57:21;100261.81;;;-0.74;100.00
14612;BME280;7392;52.078;11.650;2023-03-15T02:59:49;100263.34;;;-0.79;100.00
14612;BME280;7392;52.078;11.650;2023-03-15T03:02:18;100273.72;;;-0.81;100.00
14612;BME280;7392;52.078;11.650;2023-03-15T03:04:46;100271.00;;;-0.84;100.00
14612;BME280;7392;52.078;11.650;2023-03-15T03:07:17;100276.22;;;-0.84;100.00
14612;BME280;7392;52.078;11.650;2023-03-15T03:09:48;100280.50;;;-0.86;100.00
14612;BME280;7392;52.078;11.650;2023-03-15T03:12:17;100283.97;;;-0.87;100.00
14612;BME280;7392;52.078;11.650;2023-03-15T03:14:47;100278.69;;;-0.88;100.00
14612;BME280;7392;52.078;11.650;2023-03-15T03:17:18;100281.22;;;-0.90;100.00
14612;BME280;7392;52.078;11.650;2023-03-15T03:19:46;100280.38;;;-0.89;100.00
14612;BME280;7392;52.078;11.650;2023-03-15T03:22:17;100281.22;;;-0.90;100.00
14612;BME280;7392;52.078;11.650;2023-03-15T03:24:45;100290.72;;;-0.92;100.00
14612;BME280;7392;52.078;11.650;2023-03-15T03:27:14;100291.53;;;-0.93;100.00
14612;BME280;7392;52.078;11.650;2023-03-15T03:29:44;100294.03;;;-0.96;100.00
14612;BME280;7392;52.078;11.650;2023-03-15T03:32:13;100296.53;;;-0.99;100.00
14612;BME280;7392;52.078;11.650;2023-03-15T03:34:42;100294.75;;;-1.00;100.00
14612;BME280;7392;52.078;11.650;2023-03-15T03:37:17;100303.28;;;-1.04;100.00
14612;BME280;7392;52.078;11.650;2023-03-15T03:39:56;100306.81;;;-1.04;100.00
14612;BME280;7392;52.078;11.650;2023-03-15T03:42:24;100305.81;;;-1.07;100.00
14612;BME280;7392;52.078;11.650;2023-03-15T03:44:51;100308.47;;;-1.06;100.00
14612;BME280;7392;52.078;11.650;2023-03-15T03:47:21;100312.78;;;-1.06;100.00
14612;BME280;7392;52.078;11.650;2023-03-15T03:49:50;100316.22;;;-1.07;100.00
14612;BME280;7392;52.078;11.650;2023-03-15T03:52:18;100313.69;;;-1.06;100.00
14612;BME280;7392;52.078;11.650;2023-03-15T03:54:48;100316.31;;;-1.04;100.00
14612;BME280;7392;52.078;11.650;2023-03-15T03:57:16;100323.44;;;-1.00;100.00
14612;BME280;7392;52.078;11.650;2023-03-15T03:59:44;100326.25;;;-0.94;100.00
14612;BME280;7392;52.078;11.650;2023-03-15T04:02:11;100337.81;;;-0.87;100.00
14612;BME280;7392;52.078;11.650;2023-03-15T04:04:45;100344.09;;;-0.82;100.00
14612;BME280;7392;52.078;11.650;2023-03-15T04:07:20;100343.41;;;-0.78;100.00
14612;BME280;7392;52.078;11.650;2023-03-15T04:09:48;100353.09;;;-0.74;100.00
14612;BME280;7392;52.078;11.650;2023-03-15T04:12:16;100352.34;;;-0.71;100.00
14612;BME280;7392;52.078;11.650;2023-03-15T04:14:45;100354.16;;;-0.69;100.00
14612;BME280;7392;52.078;11.650;2023-03-15T04:17:14;100355.16;;;-0.65;100.00
14612;BME280;7392;52.078;11.650;2023-03-15T04:19:42;100360.50;;;-0.62;100.00
14612;BME280;7392;52.078;11.650;2023-03-15T04:22:15;100366.72;;;-0.59;100.00
14612;BME280;7392;52.078;11.650;2023-03-15T04:25:03;100357.22;;;-0.57;100.00
14612;BME280;7392;52.078;11.650;2023-03-15T04:27:59;100361.66;;;-0.54;100.00
14612;BME280;7392;52.078;11.650;2023-03-15T04:30:46;100377.38;;;-0.52;100.00
14612;BME280;7392;52.078;11.650;2023-03-15T04:33:33;100373.03;;;-0.52;100.00
14612;BME280;7392;52.078;11.650;2023-03-15T04:36:14;100375.66;;;-0.52;100.00
14612;BME280;7392;52.078;11.650;2023-03-15T04:38:58;100371.38;;;-0.50;100.00
14612;BME280;7392;52.078;11.650;2023-03-15T04:41:50;100379.25;;;-0.48;100.00
14612;BME280;7392;52.078;11.650;2023-03-15T04:44:43;100376.72;;;-0.47;100.00
14612;BME280;7392;52.078;11.650;2023-03-15T04:47:37;100388.94;;;-0.46;100.00
14612;BME280;7392;52.078;11.650;2023-03-15T04:50:29;100384.66;;;-0.44;100.00
14612;BME280;7392;52.078;11.650;2023-03-15T04:53:26;100384.72;;;-0.42;100.00
14612;BME280;7392;52.078;11.650;2023-03-15T04:56:14;100389.13;;;-0.40;100.00
14612;BME280;7392;52.078;11.650;2023-03-15T04:59:02;100397.16;;;-0.35;100.00
14612;BME280;7392;52.078;11.650;2023-03-15T05:01:51;100396.41;;;-0.31;100.00
14612;BME280;7392;52.078;11.650;2023-03-15T05:04:34;100405.34;;;-0.24;100.00
14612;BME280;7392;52.078;11.650;2023-03-15T05:07:35;100408.97;;;-0.21;100.00
14612;BME280;7392;52.078;11.650;2023-03-15T05:10:38;100409.09;;;-0.17;100.00
14612;BME280;7392;52.078;11.650;2023-03-15T05:13:24;100417.91;;;-0.14;100.00
14612;BME280;7392;52.078;11.650;2023-03-15T05:16:28;100426.72;;;-0.12;100.00
14612;BME280;7392;52.078;11.650;2023-03-15T05:19:11;100423.25;;;-0.11;100.00
14612;BME280;7392;52.078;11.650;2023-03-15T05:21:51;100428.47;;;-0.11;100.00
14612;BME280;7392;52.078;11.650;2023-03-15T05:24:38;100433.69;;;-0.11;100.00
14612;BME280;7392;52.078;11.650;2023-03-15T05:27:18;100438.84;;;-0.12;100.00
14612;BME280;7392;52.078;11.650;2023-03-15T05:30:15;100444.88;;;-0.15;100.00
14612;BME280;7392;52.078;11.650;2023-03-15T05:33:10;100454.41;;;-0.15;100.00
14612;BME280;7392;52.078;11.650;2023-03-15T05:35:56;100456.06;;;-0.17;100.00
14612;BME280;7392;52.078;11.650;2023-03-15T05:38:38;100466.50;;;-0.17;100.00
14612;BME280;7392;52.078;11.650;2023-03-15T05:41:29;100473.53;;;-0.16;100.00
14612;BME280;7392;52.078;11.650;2023-03-15T05:44:15;100481.31;;;-0.18;100.00
14612;BME280;7392;52.078;11.650;2023-03-15T05:47:09;100473.41;;;-0.20;100.00
14612;BME280;7392;52.078;11.650;2023-03-15T05:49:49;100476.91;;;-0.19;100.00
14612;BME280;7392;52.078;11.650;2023-03-15T05:52:38;100490.88;;;-0.18;100.00
14612;BME280;7392;52.078;11.650;2023-03-15T05:55:17;100494.28;;;-0.20;100.00
14612;BME280;7392;52.078;11.650;2023-03-15T05:58:05;100500.47;;;-0.17;100.00
14612;BME280;7392;52.078;11.650;2023-03-15T06:00:41;100509.22;;;-0.15;100.00
14612;BME280;7392;52.078;11.650;2023-03-15T06:03:20;100511.91;;;-0.14;100.00
14612;BME280;7392;52.078;11.650;2023-03-15T06:05:59;100516.44;;;-0.10;100.00
14612;BME280;7392;52.078;11.650;2023-03-15T06:08:35;100521.78;;;-0.07;100.00
14612;BME280;7392;52.078;11.650;2023-03-15T06:11:04;100533.16;;;-0.05;100.00
14612;BME280;7392;52.078;11.650;2023-03-15T06:13:32;100535.03;;;-0.01;100.00
14612;BME280;7392;52.078;11.650;2023-03-15T06:16:05;100536.94;;;0.04;100.00
14612;BME280;7392;52.078;11.650;2023-03-15T06:18:36;100545.78;;;0.07;100.00
14612;BME280;7392;52.078;11.650;2023-03-15T06:21:05;100538.94;;;0.11;100.00
14612;BME280;7392;52.078;11.650;2023-03-15T06:23:33;100540.81;;;0.15;100.00
14612;BME280;7392;52.078;11.650;2023-03-15T06:26:01;100557.63;;;0.22;100.00
14612;BME280;7392;52.078;11.650;2023-03-15T06:28:30;100559.47;;;0.24;100.00
14612;BME280;7392;52.078;11.650;2023-03-15T06:31:03;100563.09;;;0.28;100.00
14612;BME280;7392;52.078;11.650;2023-03-15T06:33:37;100573.69;;;0.32;100.00
14612;BME280;7392;52.078;11.650;2023-03-15T06:36:10;100565.13;;;0.36;100.00
14612;BME280;7392;52.078;11.650;2023-03-15T06:38:39;100567.91;;;0.41;100.00
14612;BME280;7392;52.078;11.650;2023-03-15T06:41:07;100564.50;;;0.44;100.00
14612;BME280;7392;52.078;11.650;2023-03-15T06:43:36;100572.59;;;0.50;100.00
14612;BME280;7392;52.078;11.650;2023-03-15T06:46:04;100581.53;;;0.57;100.00
14612;BME280;7392;52.078;11.650;2023-03-15T06:48:32;100587.91;;;0.65;100.00
14612;BME280;7392;52.078;11.650;2023-03-15T06:51:00;100586.47;;;0.73;100.00
14612;BME280;7392;52.078;11.650;2023-03-15T06:53:32;100596.28;;;0.80;100.00
14612;BME280;7392;52.078;11.650;2023-03-15T06:56:00;100596.50;;;0.86;100.00
14612;BME280;7392;52.078;11.650;2023-03-15T06:58:27;100597.56;;;0.91;100.00
14612;BME280;7392;52.078;11.650;2023-03-15T07:00:55;100590.75;;;0.97;100.00
14612;BME280;7392;52.078;11.650;2023-03-15T07:03:23;100597.97;;;1.04;100.00
14612;BME280;7392;52.078;11.650;2023-03-15T07:05:51;100606.88;;;1.09;100.00
14612;BME280;7392;52.078;11.650;2023-03-15T07:08:20;100608.78;;;1.13;100.00
14612;BME280;7392;52.078;11.650;2023-03-15T07:10:50;100615.00;;;1.17;100.00
14612;BME280;7392;52.078;11.650;2023-03-15T07:13:18;100610.75;;;1.20;100.00
14612;BME280;7392;52.078;11.650;2023-03-15T07:15:50;100611.75;;;1.24;100.00
14612;BME280;7392;52.078;11.650;2023-03-15T07:18:18;100610.94;;;1.26;100.00
14612;BME280;7392;52.078;11.650;2023-03-15T07:20:46;100615.50;;;1.32;100.00
14612;BME280;7392;52.078;11.650;2023-03-15T07:23:14;100618.28;;;1.37;100.00
14612;BME280;7392;52.078;11.650;2023-03-15T07:25:41;100614.91;;;1.41;100.00
14612;BME280;7392;52.078;11.650;2023-03-15T07:28:22;100624.63;;;1.45;100.00
14612;BME280;7392;52.078;11.650;2023-03-15T07:30:54;100630.84;;;1.48;100.00
14612;BME280;7392;52.078;11.650;2023-03-15T07:33:23;100626.63;;;1.52;100.00
14612;BME280;7392;52.078;11.650;2023-03-15T07:35:52;100624.09;;;1.55;100.00
14612;BME280;7392;52.078;11.650;2023-03-15T07:38:20;100634.78;;;1.61;100.00
14612;BME280;7392;52.078;11.650;2023-03-15T07:40:48;100630.53;;;1.65;100.00
14612;BME280;7392;52.078;11.650;2023-03-15T07:43:16;100629.78;;;1.69;100.00
14612;BME280;7392;52.078;11.650;2023-03-15T07:45:49;100633.44;;;1.74;100.00
14612;BME280;7392;52.078;11.650;2023-03-15T07:48:17;100631.84;;;1.79;100.00
14612;BME280;7392;52.078;11.650;2023-03-15T07:50:45;100643.34;;;1.83;100.00
14612;BME280;7392;52.078;11.650;2023-03-15T07:53:13;100637.44;;;1.90;100.00
14612;BME280;7392;52.078;11.650;2023-03-15T07:55:41;100647.38;;;2.00;100.00
14612;BME280;7392;52.078;11.650;2023-03-15T07:58:09;100645.06;;;2.11;100.00
14612;BME280;7392;52.078;11.650;2023-03-15T08:00:36;100656.56;;;2.16;100.00
14612;BME280;7392;52.078;11.650;2023-03-15T08:03:05;100658.47;;;2.20;100.00
14612;BME280;7392;52.078;11.650;2023-03-15T08:05:33;100661.16;;;2.23;100.00
14612;BME280;7392;52.078;11.650;2023-03-15T08:08:01;100664.84;;;2.30;100.00
14612;BME280;7392;52.078;11.650;2023-03-15T08:10:29;100671.47;;;2.48;100.00
14612;BME280;7392;52.078;11.650;2023-03-15T08:12:57;100676.19;;;2.59;100.00
14612;BME280;7392;52.078;11.650;2023-03-15T08:15:24;100682.44;;;2.63;100.00
14612;BME280;7392;52.078;11.650;2023-03-15T08:17:52;100680.81;;;2.67;100.00
14612;BME280;7392;52.078;11.650;2023-03-15T08:20:21;100683.47;;;2.68;100.00
14612;BME280;7392;52.078;11.650;2023-03-15T08:22:49;100687.13;;;2.73;100.00
14612;BME280;7392;52.078;11.650;2023-03-15T08:25:19;100681.09;;;2.77;100.00
14612;BME280;7392;52.078;11.650;2023-03-15T08:27:47;100682.03;;;2.79;100.00
14612;BME280;7392;52.078;11.650;2023-03-15T08:30:16;100686.59;;;2.87;99.41
14612;BME280;7392;52.078;11.650;2023-03-15T08:32:45;100683.22;;;2.91;99.54
14612;BME280;7392;52.078;11.650;2023-03-15T08:35:15;100691.22;;;2.95;99.44
14612;BME280;7392;52.078;11.650;2023-03-15T08:37:44;100700.09;;;3.00;99.83
14612;BME280;7392;52.078;11.650;2023-03-15T08:40:14;100706.31;;;3.03;98.85
14612;BME280;7392;52.078;11.650;2023-03-15T08:42:44;100708.44;;;3.17;99.67
14612;BME280;7392;52.078;11.650;2023-03-15T08:45:12;100718.50;;;3.34;99.12
14612;BME280;7392;52.078;11.650;2023-03-15T08:47:41;100714.50;;;3.48;98.55
14612;BME280;7392;52.078;11.650;2023-03-15T08:50:11;100716.69;;;3.65;98.67
14612;BME280;7392;52.078;11.650;2023-03-15T08:52:40;100720.63;;;3.82;97.26
14612;BME280;7392;52.078;11.650;2023-03-15T08:55:09;100732.47;;;4.00;96.09
14612;BME280;7392;52.078;11.650;2023-03-15T08:57:40;100729.56;;;4.25;95.26
14612;BME280;7392;52.078;11.650;2023-03-15T09:00:10;100742.06;;;4.36;94.37
14612;BME280;7392;52.078;11.650;2023-03-15T09:02:42;100741.97;;;4.31;91.87
14612;BME280;7392;52.078;11.650;2023-03-15T09:05:10;100741.03;;;4.29;91.24
14612;BME280;7392;52.078;11.650;2023-03-15T09:07:38;100738.38;;;4.27;90.25
14612;BME280;7392;52.078;11.650;2023-03-15T09:10:10;100747.75;;;4.16;88.40
14612;BME280;7392;52.078;11.650;2023-03-15T09:12:40;100745.00;;;4.11;89.43
14612;BME280;7392;52.078;11.650;2023-03-15T09:15:09;100754.59;;;4.09;88.63
14612;BME280;7392;52.078;11.650;2023-03-15T09:17:37;100758.00;;;4.05;88.74
14612;BME280;7392;52.078;11.650;2023-03-15T09:20:07;100761.47;;;4.04;88.69
14612;BME280;7392;52.078;11.650;2023-03-15T09:22:41;100761.56;;;4.07;87.98
14612;BME280;7392;52.078;11.650;2023-03-15T09:25:10;100767.06;;;4.18;87.73
14612;BME280;7392;52.078;11.650;2023-03-15T09:27:38;100761.28;;;4.33;88.09
14612;BME280;7392;52.078;11.650;2023-03-15T09:30:06;100760.91;;;4.56;87.96
14612;BME280;7392;52.078;11.650;2023-03-15T09:32:34;100764.56;;;4.62;86.54
14612;BME280;7392;52.078;11.650;2023-03-15T09:35:02;100768.13;;;4.64;85.09
14612;BME280;7392;52.078;11.650;2023-03-15T09:37:30;100775.06;;;4.61;83.79
14612;BME280;7392;52.078;11.650;2023-03-15T09:39:58;100782.00;;;4.57;82.66
14612;BME280;7392;52.078;11.650;2023-03-15T09:42:34;100785.47;;;4.55;82.58
14612;BME280;7392;52.078;11.650;2023-03-15T09:45:14;100784.06;;;4.71;84.07
14612;BME280;7392;52.078;11.650;2023-03-15T09:47:53;100779.13;;;4.86;83.68
14612;BME280;7392;52.078;11.650;2023-03-15T09:50:30;100786.03;;;4.81;82.16
14612;BME280;7392;52.078;11.650;2023-03-15T09:53:00;100791.31;;;4.81;83.42
14612;BME280;7392;52.078;11.650;2023-03-15T09:55:29;100793.88;;;4.78;83.35
14612;BME280;7392;52.078;11.650;2023-03-15T09:57:59;100807.00;;;4.76;83.23
14612;BME280;7392;52.078;11.650;2023-03-15T10:00:34;100807.78;;;4.72;81.86
14612;BME280;7392;52.078;11.650;2023-03-15T10:03:03;100815.75;;;4.75;82.30
14612;BME280;7392;52.078;11.650;2023-03-15T10:05:39;100812.88;;;5.04;82.48
14612;BME280;7392;52.078;11.650;2023-03-15T10:08:09;100810.31;;;5.09;79.01
14612;BME280;7392;52.078;11.650;2023-03-15T10:10:43;100816.31;;;5.01;78.71
14612;BME280;7392;52.078;11.650;2023-03-15T10:13:26;100824.88;;;4.91;76.89
14612;BME280;7392;52.078;11.650;2023-03-15T10:16:03;100822.13;;;4.86;76.90
14612;BME280;7392;52.078;11.650;2023-03-15T10:18:46;100811.31;;;5.14;76.57
14612;BME280;7392;52.078;11.650;2023-03-15T10:21:26;100814.72;;;5.52;77.12
14612;BME280;7392;52.078;11.650;2023-03-15T10:24:00;100813.59;;;5.85;76.44
14612;BME280;7392;52.078;11.650;2023-03-15T10:26:35;100819.78;;;5.89;75.36
14612;BME280;7392;52.078;11.650;2023-03-15T10:29:11;100816.28;;;5.88;73.21
14612;BME280;7392;52.078;11.650;2023-03-15T10:31:41;100824.50;;;6.04;73.52
14612;BME280;7392;52.078;11.650;2023-03-15T10:34:13;100823.19;;;6.32;73.64
14612;BME280;7392;52.078;11.650;2023-03-15T10:36:46;100800.88;;;6.66;73.95
14612;BME280;7392;52.078;11.650;2023-03-15T10:39:15;100810.00;;;6.88;72.35
14612;BME280;7392;52.078;11.650;2023-03-15T10:41:46;100806.50;;;6.91;71.60
14612;BME280;7392;52.078;11.650;2023-03-15T10:44:18;100814.31;;;6.85;69.71
14612;BME280;7392;52.078;11.650;2023-03-15T10:46:59;100822.03;;;6.68;69.25
14612;BME280;7392;52.078;11.650;2023-03-15T10:49:36;100824.53;;;6.60;70.70
14612;BME280;7392;52.078;11.650;2023-03-15T10:52:05;100824.66;;;6.69;71.58
14612;BME280;7392;52.078;11.650;2023-03-15T10:54:33;100828.56;;;6.95;70.92
14612;BME280;7392;52.078;11.650;2023-03-15T10:57:03;100825.34;;;7.19;69.93
14612;BME280;7392;52.078;11.650;2023-03-15T10:59:35;100823.06;;;7.45;68.66
14612;BME280;7392;52.078;11.650;2023-03-15T11:02:17;100816.25;;;7.70;64.15
14612;BME280;7392;52.078;11.650;2023-03-15T11:04:48;100823.56;;;7.91;65.70
14612;BME280;7392;52.078;11.650;2023-03-15T11:07:16;100826.44;;;8.17;65.45
14612;BME280;7392;52.078;11.650;2023-03-15T11:09:50;100816.03;;;8.37;65.57
14612;BME280;7392;52.078;11.650;2023-03-15T11:12:22;100825.91;;;8.58;64.90
14612;BME280;7392;52.078;11.650;2023-03-15T11:14:56;100831.28;;;8.65;63.48
14612;BME280;7392;52.078;11.650;2023-03-15T11:17:27;100830.50;;;8.83;64.10
14612;BME280;7392;52.078;11.650;2023-03-15T11:19:56;100834.97;;;8.93;63.75
14612;BME280;7392;52.078;11.650;2023-03-15T11:22:34;100837.50;;;8.76;60.12
14612;BME280;7392;52.078;11.650;2023-03-15T11:25:02;100842.66;;;8.54;60.35
14612;BME280;7392;52.078;11.650;2023-03-15T11:27:30;100846.91;;;8.35;60.53
14612;BME280;7392;52.078;11.650;2023-03-15T11:30:00;100844.88;;;8.11;62.18
14612;BME280;7392;52.078;11.650;2023-03-15T11:32:30;100851.22;;;8.26;64.35
14612;BME280;7392;52.078;11.650;2023-03-15T11:35:02;100844.44;;;8.58;65.91
14612;BME280;7392;52.078;11.650;2023-03-15T11:37:37;100838.50;;;8.89;65.56
14612;BME280;7392;52.078;11.650;2023-03-15T11:40:12;100839.53;;;9.22;65.69
14612;BME280;7392;52.078;11.650;2023-03-15T11:42:47;100831.72;;;9.46;64.98
14612;BME280;7392;52.078;11.650;2023-03-15T11:45:23;100826.47;;;9.71;61.69
14612;BME280;7392;52.078;11.650;2023-03-15T11:48:18;100832.72;;;10.01;60.29
14612;BME280;7392;52.078;11.650;2023-03-15T11:50:51;100840.72;;;10.10;59.78
14612;BME280;7392;52.078;11.650;2023-03-15T11:53:20;100838.97;;;10.30;59.07
14612;BME280;7392;52.078;11.650;2023-03-15T11:55:50;100838.09;;;10.58;58.53
14612;BME280;7392;52.078;11.650;2023-03-15T11:58:29;100834.53;;;10.60;58.58
14612;BME280;7392;52.078;11.650;2023-03-15T12:01:02;100844.28;;;10.55;58.40
14612;BME280;7392;52.078;11.650;2023-03-15T12:03:40;100842.53;;;10.48;58.26
14612;BME280;7392;52.078;11.650;2023-03-15T12:06:32;100842.53;;;10.36;57.38
14612;BME280;7392;52.078;11.650;2023-03-15T12:09:01;100831.88;;;10.60;58.00
14612;BME280;7392;52.078;11.650;2023-03-15T12:11:41;100834.50;;;11.02;59.29
14612;BME280;7392;52.078;11.650;2023-03-15T12:14:29;100833.53;;;11.31;56.46
14612;BME280;7392;52.078;11.650;2023-03-15T12:17:37;100836.94;;;11.54;55.27
14612;BME280;7392;52.078;11.650;2023-03-15T12:20:17;100832.31;;;11.90;55.16
14612;BME280;7392;52.078;11.650;2023-03-15T12:22:49;100826.78;;;12.24;55.35
14612;BME280;7392;52.078;11.650;2023-03-15T12:25:24;100836.34;;;12.48;51.61
14612;BME280;7392;52.078;11.650;2023-03-15T12:27:58;100823.81;;;12.63;50.06
14612;BME280;7392;52.078;11.650;2023-03-15T12:30:32;100835.34;;;12.62;48.55
14612;BME280;7392;52.078;11.650;2023-03-15T12:33:01;100842.22;;;12.86;nan
14612;BME280;7392;52.078;11.650;2023-03-15T12:35:37;100844.81;;;12.94;47.36
14612;BME280;7392;52.078;11.650;2023-03-15T12:38:11;100849.44;;;12.76;45.45
14612;BME280;7392;52.078;11.650;2023-03-15T12:40:50;100847.97;;;12.40;46.41
14612;BME280;7392;52.078;11.650;2023-03-15T12:43:35;100847.41;;;11.97;44.53
14612;BME280;7392;52.078;11.650;2023-03-15T12:46:03;100858.13;;;11.76;45.85
14612;BME280;7392;52.078;11.650;2023-03-15T12:48:33;100880.41;;;11.50;46.35
14612;BME280;7392;52.078;11.650;2023-03-15T12:51:05;100872.56;;;11.04;48.80
14612;BME280;7392;52.078;11.650;2023-03-15T12:53:41;100893.88;;;10.62;50.97
14612;BME280;7392;52.078;11.650;2023-03-15T12:56:38;100914.97;;;10.02;53.62
14612;BME280;7392;52.078;11.650;2023-03-15T12:59:27;100929.84;;;9.55;57.61
14612;BME280;7392;52.078;11.650;2023-03-15T13:01:58;100945.53;;;9.18;59.75
14612;BME280;7392;52.078;11.650;2023-03-15T13:04:28;100940.91;;;8.90;61.47
14612;BME280;7392;52.078;11.650;2023-03-15T13:07:06;100954.97;;;8.81;63.59
14612;BME280;7392;52.078;11.650;2023-03-15T13:12:34;100948.81;;;7.98;61.61
14612;BME280;7392;52.078;11.650;2023-03-15T13:15:10;100943.69;;;7.41;60.99
14612;BME280;7392;52.078;11.650;2023-03-15T13:17:42;100926.44;;;7.07;63.87
14612;BME280;7392;52.078;11.650;2023-03-15T13:20:37;100921.91;;;6.98;65.10
14612;BME280;7392;52.078;11.650;2023-03-15T13:23:13;100925.75;;;7.20;68.09